sensor_id;sensor_type;location;lat;lon;timestamp;temperature;humidity
36444;DHT22;24692;45.642;13.806;2023-06-14T00:00:19;20.40;99.90
36444;DHT22;24692;45.642;13.806;2023-06-14T00:02:46;20.40;99.90
36444;DHT22;24692;45.642;13.806;2023-06-14T00:05:12;20.30;99.90
36444;DHT22;24692;45.642;13.806;2023-06-14T00:07:39;20.30;99.90
36444;DHT22;24692;45.642;13.806;2023-06-14T00:10:10;20.30;99.90
36444;DHT22;24692;45.642;13.806;2023-06-14T00:12:36;20.30;99.90
36444;DHT22;24692;45.642;13.806;2023-06-14T00:15:02;20.30;99.90
36444;DHT22;24692;45.642;13.806;2023-06-14T00:17:27;20.20;99.90
36444;DHT22;24692;45.642;13.806;2023-06-14T00:19:59;20.20;99.90
36444;DHT22;24692;45.642;13.806;2023-06-14T00:22:25;20.10;99.90
36444;DHT22;24692;45.642;13.806;2023-06-14T00:24:51;20.00;99.90
36444;DHT22;24692;45.642;13.806;2023-06-14T00:27:17;20.00;99.90
36444;DHT22;24692;45.642;13.806;2023-06-14T00:29:43;20.00;99.90
36444;DHT22;24692;45.642;13.806;2023-06-14T00:32:08;20.10;99.90
36444;DHT22;24692;45.642;13.806;2023-06-14T00:34:34;20.10;99.90
36444;DHT22;24692;45.642;13.806;2023-06-14T00:37:00;20.10;99.90
36444;DHT22;24692;45.642;13.806;2023-06-14T00:39:26;20.10;99.90
36444;DHT22;24692;45.642;13.806;2023-06-14T00:41:51;20.20;99.90
36444;DHT22;24692;45.642;13.806;2023-06-14T00:44:17;20.10;99.90
36444;DHT22;24692;45.642;13.806;2023-06-14T00:46:44;20.20;99.90
36444;DHT22;24692;45.642;13.806;2023-06-14T00:49:12;20.20;99.90
36444;DHT22;24692;45.642;13.806;2023-06-14T00:51:38;20.20;99.90
36444;DHT22;24692;45.642;13.806;2023-06-14T00:54:04;20.20;99.90
36444;DHT22;24692;45.642;13.806;2023-06-14T00:56:30;20.20;99.90
36444;DHT22;24692;45.642;13.806;2023-06-14T00:58:56;20.10;99.90
36444;DHT22;24692;45.642;13.806;2023-06-14T01:01:23;20.10;99.90
36444;DHT22;24692;45.642;13.806;2023-06-14T01:03:49;20.10;99.90
36444;DHT22;24692;45.642;13.806;2023-06-14T01:09:15;20.00;99.90
36444;DHT22;24692;45.642;13.806;2023-06-14T01:12:13;20.10;99.90
36444;DHT22;24692;45.642;13.806;2023-06-14T01:14:39;20.00;99.90
36444;DHT22;24692;45.642;13.806;2023-06-14T01:17:08;20.00;99.90
36444;DHT22;24692;45.642;13.806;2023-06-14T01:19:41;20.00;99.90
36444;DHT22;24692;45.642;13.806;2023-06-14T01:22:08;20.00;99.90
36444;DHT22;24692;45.642;13.806;2023-06-14T01:24:34;19.90;99.90
36444;DHT22;24692;45.642;13.806;2023-06-14T01:27:01;19.90;99.90
36444;DHT22;24692;45.642;13.806;2023-06-14T01:29:28;19.90;99.90
36444;DHT22;24692;45.642;13.806;2023-06-14T01:32:01;19.90;99.90
36444;DHT22;24692;45.642;13.806;2023-06-14T01:34:27;19.90;99.90
36444;DHT22;24692;45.642;13.806;2023-06-14T01:36:53;19.90;99.90
36444;DHT22;24692;45.642;13.806;2023-06-14T01:39:23;19.90;99.90
36444;DHT22;24692;45.642;13.806;2023-06-14T01:41:49;19.90;99.90
36444;DHT22;24692;45.642;13.806;2023-06-14T01:44:17;19.90;99.90
36444;DHT22;24692;45.642;13.806;2023-06-14T01:46:44;19.90;99.90
36444;DHT22;24692;45.642;13.806;2023-06-14T01:49:11;19.90;99.90
36444;DHT22;24692;45.642;13.806;2023-06-14T01:51:37;19.90;99.90
36444;DHT22;24692;45.642;13.806;2023-06-14T01:54:03;19.90;99.90
36444;DHT22;24692;45.642;13.806;2023-06-14T01:56:28;19.80;99.90
36444;DHT22;24692;45.642;13.806;2023-06-14T01:58:54;19.80;99.90
36444;DHT22;24692;45.642;13.806;2023-06-14T02:01:20;19.70;99.90
36444;DHT22;24692;45.642;13.806;2023-06-14T02:03:47;19.80;99.90
36444;DHT22;24692;45.642;13.806;2023-06-14T02:06:14;19.80;99.90
36444;DHT22;24692;45.642;13.806;2023-06-14T02:08:41;19.80;99.90
36444;DHT22;24692;45.642;13.806;2023-06-14T02:11:08;19.70;99.90
36444;DHT22;24692;45.642;13.806;2023-06-14T02:13:33;19.80;99.90
36444;DHT22;24692;45.642;13.806;2023-06-14T02:16:00;19.70;99.90
36444;DHT22;24692;45.642;13.806;2023-06-14T02:18:26;19.70;99.90
36444;DHT22;24692;45.642;13.806;2023-06-14T02:20:52;19.70;99.90
36444;DHT22;24692;45.642;13.806;2023-06-14T02:23:18;19.70;99.90
36444;DHT22;24692;45.642;13.806;2023-06-14T02:25:44;19.70;99.90
36444;DHT22;24692;45.642;13.806;2023-06-14T02:28:11;19.70;99.90
36444;DHT22;24692;45.642;13.806;2023-06-14T02:30:37;19.80;99.90
36444;DHT22;24692;45.642;13.806;2023-06-14T02:33:02;19.70;99.90
36444;DHT22;24692;45.642;13.806;2023-06-14T02:35:30;19.70;99.90
36444;DHT22;24692;45.642;13.806;2023-06-14T02:37:56;19.60;99.90
36444;DHT22;24692;45.642;13.806;2023-06-14T02:40:22;19.60;99.90
36444;DHT22;24692;45.642;13.806;2023-06-14T02:42:47;19.60;99.90
36444;DHT22;24692;45.642;13.806;2023-06-14T02:45:13;19.60;99.90
36444;DHT22;24692;45.642;13.806;2023-06-14T02:47:39;19.60;99.90
36444;DHT22;24692;45.642;13.806;2023-06-14T02:50:05;19.50;99.90
36444;DHT22;24692;45.642;13.806;2023-06-14T02:52:31;19.40;99.90
36444;DHT22;24692;45.642;13.806;2023-06-14T02:54:58;19.50;99.90
36444;DHT22;24692;45.642;13.806;2023-06-14T02:57:24;19.50;99.90
36444;DHT22;24692;45.642;13.806;2023-06-14T02:59:50;19.40;99.90
36444;DHT22;24692;45.642;13.806;2023-06-14T03:02:15;19.40;99.90
36444;DHT22;24692;45.642;13.806;2023-06-14T03:04:41;19.40;99.90
36444;DHT22;24692;45.642;13.806;2023-06-14T03:07:10;19.30;99.90
36444;DHT22;24692;45.642;13.806;2023-06-14T03:09:36;19.30;99.90
36444;DHT22;24692;45.642;13.806;2023-06-14T03:12:03;19.30;99.90
36444;DHT22;24692;45.642;13.806;2023-06-14T03:14:29;19.30;99.90
36444;DHT22;24692;45.642;13.806;2023-06-14T03:16:56;19.30;99.90
36444;DHT22;24692;45.642;13.806;2023-06-14T03:19:25;19.30;99.90
36444;DHT22;24692;45.642;13.806;2023-06-14T03:21:53;19.40;99.90
36444;DHT22;24692;45.642;13.806;2023-06-14T03:24:23;19.50;99.90
36444;DHT22;24692;45.642;13.806;2023-06-14T03:26:49;19.50;99.90
36444;DHT22;24692;45.642;13.806;2023-06-14T03:29:14;19.50;99.90
36444;DHT22;24692;45.642;13.806;2023-06-14T03:31:55;19.60;99.90
36444;DHT22;24692;45.642;13.806;2023-06-14T03:34:21;19.60;99.90
36444;DHT22;24692;45.642;13.806;2023-06-14T03:36:47;19.70;99.90
36444;DHT22;24692;45.642;13.806;2023-06-14T03:39:12;19.70;99.90
36444;DHT22;24692;45.642;13.806;2023-06-14T03:41:38;19.80;99.90
36444;DHT22;24692;45.642;13.806;2023-06-14T03:44:04;19.80;99.90
36444;DHT22;24692;45.642;13.806;2023-06-14T03:46:29;19.80;99.90
36444;DHT22;24692;45.642;13.806;2023-06-14T03:48:55;19.80;99.90
36444;DHT22;24692;45.642;13.806;2023-06-14T03:51:21;19.80;99.90
36444;DHT22;24692;45.642;13.806;2023-06-14T03:53:48;19.90;99.90
36444;DHT22;24692;45.642;13.806;2023-06-14T03:56:13;20.00;99.90
36444;DHT22;24692;45.642;13.806;2023-06-14T03:58:39;20.10;99.90
36444;DHT22;24692;45.642;13.806;2023-06-14T04:01:04;20.10;99.90
36444;DHT22;24692;45.642;13.806;2023-06-14T04:03:32;20.10;99.90
36444;DHT22;24692;45.642;13.806;2023-06-14T04:05:58;20.20;99.90
36444;DHT22;24692;45.642;13.806;2023-06-14T04:08:25;20.20;99.90
36444;DHT22;24692;45.642;13.806;2023-06-14T04:10:51;20.20;99.90
36444;DHT22;24692;45.642;13.806;2023-06-14T04:13:17;20.20;99.90
36444;DHT22;24692;45.642;13.806;2023-06-14T04:15:43;20.20;99.90
36444;DHT22;24692;45.642;13.806;2023-06-14T04:18:11;20.20;99.90
36444;DHT22;24692;45.642;13.806;2023-06-14T04:20:36;20.20;99.90
36444;DHT22;24692;45.642;13.806;2023-06-14T04:23:17;20.20;99.90
36444;DHT22;24692;45.642;13.806;2023-06-14T04:25:47;20.20;99.90
36444;DHT22;24692;45.642;13.806;2023-06-14T04:28:15;20.20;99.90
36444;DHT22;24692;45.642;13.806;2023-06-14T04:30:42;20.30;99.90
36444;DHT22;24692;45.642;13.806;2023-06-14T04:33:08;20.40;99.90
36444;DHT22;24692;45.642;13.806;2023-06-14T04:35:35;20.50;99.90
36444;DHT22;24692;45.642;13.806;2023-06-14T04:38:03;20.50;99.90
36444;DHT22;24692;45.642;13.806;2023-06-14T04:40:30;20.50;99.90
36444;DHT22;24692;45.642;13.806;2023-06-14T04:42:56;20.60;99.90
36444;DHT22;24692;45.642;13.806;2023-06-14T04:45:23;20.50;99.90
36444;DHT22;24692;45.642;13.806;2023-06-14T04:47:49;20.50;99.90
36444;DHT22;24692;45.642;13.806;2023-06-14T04:50:16;20.60;99.90
36444;DHT22;24692;45.642;13.806;2023-06-14T04:52:42;20.60;99.90
36444;DHT22;24692;45.642;13.806;2023-06-14T04:55:08;20.70;99.90
36444;DHT22;24692;45.642;13.806;2023-06-14T04:57:34;20.70;99.90
36444;DHT22;24692;45.642;13.806;2023-06-14T05:00:00;20.80;99.90
36444;DHT22;24692;45.642;13.806;2023-06-14T05:02:29;20.80;99.90
36444;DHT22;24692;45.642;13.806;2023-06-14T05:04:56;20.90;99.90
36444;DHT22;24692;45.642;13.806;2023-06-14T05:07:22;20.90;99.90
36444;DHT22;24692;45.642;13.806;2023-06-14T05:09:49;20.90;99.90
36444;DHT22;24692;45.642;13.806;2023-06-14T05:12:15;21.00;99.90
36444;DHT22;24692;45.642;13.806;2023-06-14T05:14:44;21.10;99.90
36444;DHT22;24692;45.642;13.806;2023-06-14T05:17:09;21.20;99.90
36444;DHT22;24692;45.642;13.806;2023-06-14T05:19:35;21.30;99.90
36444;DHT22;24692;45.642;13.806;2023-06-14T05:22:01;21.30;99.90
36444;DHT22;24692;45.642;13.806;2023-06-14T05:24:28;21.40;99.90
36444;DHT22;24692;45.642;13.806;2023-06-14T05:26:56;21.50;99.90
36444;DHT22;24692;45.642;13.806;2023-06-14T05:29:22;21.60;99.90
36444;DHT22;24692;45.642;13.806;2023-06-14T05:31:47;21.70;99.90
36444;DHT22;24692;45.642;13.806;2023-06-14T05:34:13;21.80;99.90
36444;DHT22;24692;45.642;13.806;2023-06-14T05:36:39;21.80;99.90
36444;DHT22;24692;45.642;13.806;2023-06-14T05:39:04;21.80;99.90
36444;DHT22;24692;45.642;13.806;2023-06-14T05:41:32;21.80;99.90
36444;DHT22;24692;45.642;13.806;2023-06-14T05:43:57;21.90;99.90
36444;DHT22;24692;45.642;13.806;2023-06-14T05:46:24;21.90;99.90
36444;DHT22;24692;45.642;13.806;2023-06-14T05:48:54;22.00;99.90
36444;DHT22;24692;45.642;13.806;2023-06-14T05:51:20;22.10;99.90
36444;DHT22;24692;45.642;13.806;2023-06-14T05:53:49;22.10;99.90
36444;DHT22;24692;45.642;13.806;2023-06-14T05:56:15;22.20;99.90
36444;DHT22;24692;45.642;13.806;2023-06-14T05:58:43;22.10;99.90
36444;DHT22;24692;45.642;13.806;2023-06-14T06:01:09;22.00;99.90
36444;DHT22;24692;45.642;13.806;2023-06-14T06:03:34;22.00;99.90
36444;DHT22;24692;45.642;13.806;2023-06-14T06:06:00;22.00;99.90
36444;DHT22;24692;45.642;13.806;2023-06-14T06:08:27;22.10;99.90
36444;DHT22;24692;45.642;13.806;2023-06-14T06:10:52;22.30;99.90
36444;DHT22;24692;45.642;13.806;2023-06-14T06:13:19;22.20;99.90
36444;DHT22;24692;45.642;13.806;2023-06-14T06:15:44;22.30;99.90
36444;DHT22;24692;45.642;13.806;2023-06-14T06:18:11;22.40;99.90
36444;DHT22;24692;45.642;13.806;2023-06-14T06:20:36;22.40;99.90
36444;DHT22;24692;45.642;13.806;2023-06-14T06:23:02;22.70;99.90
36444;DHT22;24692;45.642;13.806;2023-06-14T06:25:28;22.60;99.90
36444;DHT22;24692;45.642;13.806;2023-06-14T06:27:54;22.60;99.90
36444;DHT22;24692;45.642;13.806;2023-06-14T06:30:22;22.70;99.90
36444;DHT22;24692;45.642;13.806;2023-06-14T06:32:47;22.70;99.90
36444;DHT22;24692;45.642;13.806;2023-06-14T06:35:13;22.60;99.90
36444;DHT22;24692;45.642;13.806;2023-06-14T06:37:40;22.60;99.90
36444;DHT22;24692;45.642;13.806;2023-06-14T06:40:06;22.60;99.90
36444;DHT22;24692;45.642;13.806;2023-06-14T06:42:33;22.70;99.90
36444;DHT22;24692;45.642;13.806;2023-06-14T06:45:00;22.70;99.90
36444;DHT22;24692;45.642;13.806;2023-06-14T06:47:25;22.60;99.90
36444;DHT22;24692;45.642;13.806;2023-06-14T06:49:51;22.70;99.90
36444;DHT22;24692;45.642;13.806;2023-06-14T06:52:17;22.70;99.90
36444;DHT22;24692;45.642;13.806;2023-06-14T06:54:42;22.80;99.90
36444;DHT22;24692;45.642;13.806;2023-06-14T06:57:08;23.00;99.90
36444;DHT22;24692;45.642;13.806;2023-06-14T06:59:34;23.10;99.90
36444;DHT22;24692;45.642;13.806;2023-06-14T07:02:00;23.30;99.90
36444;DHT22;24692;45.642;13.806;2023-06-14T07:04:25;23.50;99.90
36444;DHT22;24692;45.642;13.806;2023-06-14T07:06:51;23.70;99.90
36444;DHT22;24692;45.642;13.806;2023-06-14T07:09:17;23.90;99.90
36444;DHT22;24692;45.642;13.806;2023-06-14T07:11:45;24.00;99.90
36444;DHT22;24692;45.642;13.806;2023-06-14T07:14:11;23.90;99.90
36444;DHT22;24692;45.642;13.806;2023-06-14T07:16:36;24.10;99.90
36444;DHT22;24692;45.642;13.806;2023-06-14T07:19:04;24.10;99.90
36444;DHT22;24692;45.642;13.806;2023-06-14T07:21:30;24.30;99.90
36444;DHT22;24692;45.642;13.806;2023-06-14T07:23:56;24.50;99.90
36444;DHT22;24692;45.642;13.806;2023-06-14T07:26:22;24.60;99.90
36444;DHT22;24692;45.642;13.806;2023-06-14T07:28:48;24.70;99.90
36444;DHT22;24692;45.642;13.806;2023-06-14T07:31:17;24.90;99.90
36444;DHT22;24692;45.642;13.806;2023-06-14T07:33:44;25.10;99.90
36444;DHT22;24692;45.642;13.806;2023-06-14T07:36:10;25.40;99.90
36444;DHT22;24692;45.642;13.806;2023-06-14T07:38:36;25.60;99.90
36444;DHT22;24692;45.642;13.806;2023-06-14T07:41:02;25.80;99.90
36444;DHT22;24692;45.642;13.806;2023-06-14T07:43:28;25.60;99.90
36444;DHT22;24692;45.642;13.806;2023-06-14T07:45:54;25.60;99.90
36444;DHT22;24692;45.642;13.806;2023-06-14T07:48:20;25.70;99.90
36444;DHT22;24692;45.642;13.806;2023-06-14T07:50:46;25.90;99.90
36444;DHT22;24692;45.642;13.806;2023-06-14T07:53:12;26.20;99.90
36444;DHT22;24692;45.642;13.806;2023-06-14T07:55:37;26.40;99.90
36444;DHT22;24692;45.642;13.806;2023-06-14T07:58:04;26.40;99.90
36444;DHT22;24692;45.642;13.806;2023-06-14T08:00:30;26.20;99.90
36444;DHT22;24692;45.642;13.806;2023-06-14T08:02:56;26.30;99.90
36444;DHT22;24692;45.642;13.806;2023-06-14T08:05:28;26.30;99.90
36444;DHT22;24692;45.642;13.806;2023-06-14T08:07:54;26.30;99.90
36444;DHT22;24692;45.642;13.806;2023-06-14T08:10:21;26.20;99.90
36444;DHT22;24692;45.642;13.806;2023-06-14T08:12:47;26.10;99.90
36444;DHT22;24692;45.642;13.806;2023-06-14T08:15:13;26.00;99.90
36444;DHT22;24692;45.642;13.806;2023-06-14T08:17:39;26.10;99.90
36444;DHT22;24692;45.642;13.806;2023-06-14T08:20:05;26.10;99.90
36444;DHT22;24692;45.642;13.806;2023-06-14T08:22:31;26.20;99.90
36444;DHT22;24692;45.642;13.806;2023-06-14T08:25:00;26.40;99.90
36444;DHT22;24692;45.642;13.806;2023-06-14T08:27:26;26.60;99.90
36444;DHT22;24692;45.642;13.806;2023-06-14T08:29:52;26.90;99.90
36444;DHT22;24692;45.642;13.806;2023-06-14T08:32:17;27.20;99.90
36444;DHT22;24692;45.642;13.806;2023-06-14T08:34:43;27.10;99.90
36444;DHT22;24692;45.642;13.806;2023-06-14T08:37:09;26.80;99.90
36444;DHT22;24692;45.642;13.806;2023-06-14T08:39:34;26.70;99.90
36444;DHT22;24692;45.642;13.806;2023-06-14T08:42:02;27.60;99.90
36444;DHT22;24692;45.642;13.806;2023-06-14T08:44:29;28.70;99.90
36444;DHT22;24692;45.642;13.806;2023-06-14T08:46:56;29.60;99.90
36444;DHT22;24692;45.642;13.806;2023-06-14T08:49:25;30.10;99.90
36444;DHT22;24692;45.642;13.806;2023-06-14T08:51:57;30.70;99.90
36444;DHT22;24692;45.642;13.806;2023-06-14T08:54:31;31.40;99.90
36444;DHT22;24692;45.642;13.806;2023-06-14T08:57:00;31.00;99.90
36444;DHT22;24692;45.642;13.806;2023-06-14T08:59:28;30.70;99.90
36444;DHT22;24692;45.642;13.806;2023-06-14T09:01:56;30.70;99.90
36444;DHT22;24692;45.642;13.806;2023-06-14T09:04:22;30.80;99.90
36444;DHT22;24692;45.642;13.806;2023-06-14T09:06:49;30.60;99.90
36444;DHT22;24692;45.642;13.806;2023-06-14T09:09:20;31.30;99.90
36444;DHT22;24692;45.642;13.806;2023-06-14T09:11:51;31.40;99.90
36444;DHT22;24692;45.642;13.806;2023-06-14T09:14:21;31.60;99.90
36444;DHT22;24692;45.642;13.806;2023-06-14T09:16:46;30.20;99.90
36444;DHT22;24692;45.642;13.806;2023-06-14T09:19:24;29.60;99.90
36444;DHT22;24692;45.642;13.806;2023-06-14T09:21:50;30.20;99.90
36444;DHT22;24692;45.642;13.806;2023-06-14T09:24:18;30.90;99.90
36444;DHT22;24692;45.642;13.806;2023-06-14T09:26:47;31.00;99.90
36444;DHT22;24692;45.642;13.806;2023-06-14T09:29:13;30.60;99.90
36444;DHT22;24692;45.642;13.806;2023-06-14T09:31:38;30.00;99.90
36444;DHT22;24692;45.642;13.806;2023-06-14T09:34:05;30.40;99.90
36444;DHT22;24692;45.642;13.806;2023-06-14T09:36:31;30.90;99.90
36444;DHT22;24692;45.642;13.806;2023-06-14T09:39:02;31.50;99.90
36444;DHT22;24692;45.642;13.806;2023-06-14T09:41:33;32.10;99.90
36444;DHT22;24692;45.642;13.806;2023-06-14T09:44:00;32.10;99.90
36444;DHT22;24692;45.642;13.806;2023-06-14T09:46:27;32.00;99.90
36444;DHT22;24692;45.642;13.806;2023-06-14T09:48:55;32.60;99.90
36444;DHT22;24692;45.642;13.806;2023-06-14T09:51:23;32.80;99.90
36444;DHT22;24692;45.642;13.806;2023-06-14T09:53:49;32.60;99.90
36444;DHT22;24692;45.642;13.806;2023-06-14T09:56:23;32.50;99.90
36444;DHT22;24692;45.642;13.806;2023-06-14T09:58:54;31.90;99.90
36444;DHT22;24692;45.642;13.806;2023-06-14T10:01:21;32.30;99.90
36444;DHT22;24692;45.642;13.806;2023-06-14T10:03:47;33.40;99.90
36444;DHT22;24692;45.642;13.806;2023-06-14T10:06:16;34.50;99.90
36444;DHT22;24692;45.642;13.806;2023-06-14T10:08:42;34.90;99.90
36444;DHT22;24692;45.642;13.806;2023-06-14T10:11:08;34.90;99.90
36444;DHT22;24692;45.642;13.806;2023-06-14T10:13:35;34.10;99.90
36444;DHT22;24692;45.642;13.806;2023-06-14T10:16:22;34.10;99.90
36444;DHT22;24692;45.642;13.806;2023-06-14T10:23:51;34.40;99.90
36444;DHT22;24692;45.642;13.806;2023-06-14T10:26:19;34.40;99.90
36444;DHT22;24692;45.642;13.806;2023-06-14T10:29:00;34.30;99.90
36444;DHT22;24692;45.642;13.806;2023-06-14T10:31:49;34.70;99.90
36444;DHT22;24692;45.642;13.806;2023-06-14T10:34:29;34.40;99.90
36444;DHT22;24692;45.642;13.806;2023-06-14T10:37:25;33.90;99.90
36444;DHT22;24692;45.642;13.806;2023-06-14T10:39:51;33.60;99.90
36444;DHT22;24692;45.642;13.806;2023-06-14T10:42:18;33.90;99.90
36444;DHT22;24692;45.642;13.806;2023-06-14T10:44:52;33.60;99.90
36444;DHT22;24692;45.642;13.806;2023-06-14T10:52:28;34.60;99.90
36444;DHT22;24692;45.642;13.806;2023-06-14T10:55:08;34.00;99.90
36444;DHT22;24692;45.642;13.806;2023-06-14T10:57:37;32.60;99.90
36444;DHT22;24692;45.642;13.806;2023-06-14T11:00:06;30.90;99.90
36444;DHT22;24692;45.642;13.806;2023-06-14T11:05:15;29.50;99.90
36444;DHT22;24692;45.642;13.806;2023-06-14T11:08:16;28.90;99.90
36444;DHT22;24692;45.642;13.806;2023-06-14T11:10:44;28.90;99.90
36444;DHT22;24692;45.642;13.806;2023-06-14T11:13:13;28.70;99.90
36444;DHT22;24692;45.642;13.806;2023-06-14T11:15:46;28.20;99.90
36444;DHT22;24692;45.642;13.806;2023-06-14T11:18:15;28.10;99.90
36444;DHT22;24692;45.642;13.806;2023-06-14T11:20:42;28.10;99.90
36444;DHT22;24692;45.642;13.806;2023-06-14T11:23:07;27.90;99.90
36444;DHT22;24692;45.642;13.806;2023-06-14T11:25:33;27.80;99.90
36444;DHT22;24692;45.642;13.806;2023-06-14T11:27:59;27.90;99.90
36444;DHT22;24692;45.642;13.806;2023-06-14T11:30:25;28.30;99.90
36444;DHT22;24692;45.642;13.806;2023-06-14T11:32:52;28.30;99.90
36444;DHT22;24692;45.642;13.806;2023-06-14T11:35:21;28.00;99.90
36444;DHT22;24692;45.642;13.806;2023-06-14T11:37:49;28.20;99.90
36444;DHT22;24692;45.642;13.806;2023-06-14T11:40:15;28.30;99.90
36444;DHT22;24692;45.642;13.806;2023-06-14T11:42:41;28.70;99.90
36444;DHT22;24692;45.642;13.806;2023-06-14T11:45:08;30.30;99.90
36444;DHT22;24692;45.642;13.806;2023-06-14T11:47:39;31.20;99.90
36444;DHT22;24692;45.642;13.806;2023-06-14T11:50:07;31.10;99.90
36444;DHT22;24692;45.642;13.806;2023-06-14T11:52:36;31.50;99.90
36444;DHT22;24692;45.642;13.806;2023-06-14T11:55:03;32.20;99.90
36444;DHT22;24692;45.642;13.806;2023-06-14T11:57:35;32.00;99.90
36444;DHT22;24692;45.642;13.806;2023-06-14T12:00:06;31.50;99.90
36444;DHT22;24692;45.642;13.806;2023-06-14T12:02:33;31.60;99.90
36444;DHT22;24692;45.642;13.806;2023-06-14T12:05:04;32.20;99.90
36444;DHT22;24692;45.642;13.806;2023-06-14T12:07:32;33.40;99.90
36444;DHT22;24692;45.642;13.806;2023-06-14T12:12:24;33.60;99.90
36444;DHT22;24692;45.642;13.806;2023-06-14T12:14:54;33.90;99.90
36444;DHT22;24692;45.642;13.806;2023-06-14T12:17:20;33.90;99.90
36444;DHT22;24692;45.642;13.806;2023-06-14T12:19:46;33.90;99.90
36444;DHT22;24692;45.642;13.806;2023-06-14T12:22:16;33.50;99.90
36444;DHT22;24692;45.642;13.806;2023-06-14T12:24:45;33.90;99.90
36444;DHT22;24692;45.642;13.806;2023-06-14T12:27:11;34.60;99.90
36444;DHT22;24692;45.642;13.806;2023-06-14T12:29:41;34.80;99.90
36444;DHT22;24692;45.642;13.806;2023-06-14T12:32:11;33.80;99.90
36444;DHT22;24692;45.642;13.806;2023-06-14T12:34:38;32.90;99.90
36444;DHT22;24692;45.642;13.806;2023-06-14T12:37:03;31.90;99.90
36444;DHT22;24692;45.642;13.806;2023-06-14T12:39:30;31.30;99.90
36444;DHT22;24692;45.642;13.806;2023-06-14T12:41:57;31.00;99.90
36444;DHT22;24692;45.642;13.806;2023-06-14T12:44:23;31.50;99.90
36444;DHT22;24692;45.642;13.806;2023-06-14T12:46:48;32.20;99.90
36444;DHT22;24692;45.642;13.806;2023-06-14T12:49:16;33.50;99.90
36444;DHT22;24692;45.642;13.806;2023-06-14T12:51:42;33.20;99.90
36444;DHT22;24692;45.642;13.806;2023-06-14T12:54:08;32.20;99.90
36444;DHT22;24692;45.642;13.806;2023-06-14T12:56:34;32.30;99.90
36444;DHT22;24692;45.642;13.806;2023-06-14T12:58:59;33.00;99.90
36444;DHT22;24692;45.642;13.806;2023-06-14T13:01:25;34.20;99.90
36444;DHT22;24692;45.642;13.806;2023-06-14T13:03:51;34.90;99.90
36444;DHT22;24692;45.642;13.806;2023-06-14T13:06:21;35.20;99.90
36444;DHT22;24692;45.642;13.806;2023-06-14T13:08:48;35.20;99.90
36444;DHT22;24692;45.642;13.806;2023-06-14T13:11:13;34.80;99.90
36444;DHT22;24692;45.642;13.806;2023-06-14T13:13:40;35.40;99.90
36444;DHT22;24692;45.642;13.806;2023-06-14T13:16:05;35.40;99.90
36444;DHT22;24692;45.642;13.806;2023-06-14T13:18:31;34.10;99.90
36444;DHT22;24692;45.642;13.806;2023-06-14T13:20:56;32.20;99.90
36444;DHT22;24692;45.642;13.806;2023-06-14T13:23:22;30.80;99.90
36444;DHT22;24692;45.642;13.806;2023-06-14T13:25:48;30.30;99.90
36444;DHT22;24692;45.642;13.806;2023-06-14T13:28:15;29.80;99.90
36444;DHT22;24692;45.642;13.806;2023-06-14T13:30:41;29.60;99.90
36444;DHT22;24692;45.642;13.806;2023-06-14T13:33:06;29.60;99.90
36444;DHT22;24692;45.642;13.806;2023-06-14T13:35:32;29.60;99.90
36444;DHT22;24692;45.642;13.806;2023-06-14T13:37:58;29.70;99.90
36444;DHT22;24692;45.642;13.806;2023-06-14T13:40:23;29.60;99.90
36444;DHT22;24692;45.642;13.806;2023-06-14T13:42:49;29.50;99.90
36444;DHT22;24692;45.642;13.806;2023-06-14T13:45:15;29.30;99.90
36444;DHT22;24692;45.642;13.806;2023-06-14T13:47:41;29.10;99.90
36444;DHT22;24692;45.642;13.806;2023-06-14T13:50:07;29.30;99.90
36444;DHT22;24692;45.642;13.806;2023-06-14T13:52:33;29.50;99.90
36444;DHT22;24692;45.642;13.806;2023-06-14T13:54:58;29.70;99.90
36444;DHT22;24692;45.642;13.806;2023-06-14T13:57:26;30.20;99.90
36444;DHT22;24692;45.642;13.806;2023-06-14T13:59:52;31.00;99.90
36444;DHT22;24692;45.642;13.806;2023-06-14T14:02:20;31.80;99.90
36444;DHT22;24692;45.642;13.806;2023-06-14T14:04:46;32.00;99.90
36444;DHT22;24692;45.642;13.806;2023-06-14T14:07:18;31.60;99.90
36444;DHT22;24692;45.642;13.806;2023-06-14T14:09:44;31.30;99.90
36444;DHT22;24692;45.642;13.806;2023-06-14T14:12:10;30.70;99.90
36444;DHT22;24692;45.642;13.806;2023-06-14T14:14:36;30.30;99.90
36444;DHT22;24692;45.642;13.806;2023-06-14T14:17:02;30.10;99.90
36444;DHT22;24692;45.642;13.806;2023-06-14T14:19:28;30.70;99.90
36444;DHT22;24692;45.642;13.806;2023-06-14T14:21:54;32.30;99.90
36444;DHT22;24692;45.642;13.806;2023-06-14T14:24:19;33.00;99.90
36444;DHT22;24692;45.642;13.806;2023-06-14T14:26:45;34.00;99.90
36444;DHT22;24692;45.642;13.806;2023-06-14T14:29:14;34.10;99.90
36444;DHT22;24692;45.642;13.806;2023-06-14T14:31:40;34.20;99.90
36444;DHT22;24692;45.642;13.806;2023-06-14T14:34:05;34.20;99.90
36444;DHT22;24692;45.642;13.806;2023-06-14T14:36:31;34.20;99.90
36444;DHT22;24692;45.642;13.806;2023-06-14T14:38:59;33.30;99.90
36444;DHT22;24692;45.642;13.806;2023-06-14T14:41:24;33.30;99.90
36444;DHT22;24692;45.642;13.806;2023-06-14T14:43:50;33.60;99.90
36444;DHT22;24692;45.642;13.806;2023-06-14T14:46:16;32.40;99.90
36444;DHT22;24692;45.642;13.806;2023-06-14T14:48:42;31.10;99.90
36444;DHT22;24692;45.642;13.806;2023-06-14T14:51:08;30.60;99.90
36444;DHT22;24692;45.642;13.806;2023-06-14T14:53:33;30.80;99.90
36444;DHT22;24692;45.642;13.806;2023-06-14T14:55:59;31.00;99.90
36444;DHT22;24692;45.642;13.806;2023-06-14T14:58:25;31.10;99.90
36444;DHT22;24692;45.642;13.806;2023-06-14T15:00:51;30.70;99.90
36444;DHT22;24692;45.642;13.806;2023-06-14T15:03:16;30.10;99.90
36444;DHT22;24692;45.642;13.806;2023-06-14T15:05:42;29.80;99.90
36444;DHT22;24692;45.642;13.806;2023-06-14T15:08:08;29.60;99.90
36444;DHT22;24692;45.642;13.806;2023-06-14T15:10:37;29.80;99.90
36444;DHT22;24692;45.642;13.806;2023-06-14T15:13:06;31.20;99.90
36444;DHT22;24692;45.642;13.806;2023-06-14T15:15:32;31.80;99.90
36444;DHT22;24692;45.642;13.806;2023-06-14T15:17:58;31.60;99.90
36444;DHT22;24692;45.642;13.806;2023-06-14T15:20:24;30.90;99.90
36444;DHT22;24692;45.642;13.806;2023-06-14T15:22:49;30.30;99.90
36444;DHT22;24692;45.642;13.806;2023-06-14T15:25:15;30.20;99.90
36444;DHT22;24692;45.642;13.806;2023-06-14T15:27:41;30.40;99.90
36444;DHT22;24692;45.642;13.806;2023-06-14T15:30:07;30.30;99.90
36444;DHT22;24692;45.642;13.806;2023-06-14T15:32:32;29.80;99.90